createdAt,value
2023-01-22T00:01:18.040Z,97645.47
2023-01-22T00:03:46.842Z,97654.38
2023-01-22T00:06:13.713Z,97651.44
2023-01-22T00:08:40.236Z,97646.31
2023-01-22T00:11:06.712Z,97636.47
2023-01-22T00:13:33.266Z,97646.06
2023-01-22T00:16:00.038Z,97644.59
2023-01-22T00:18:26.829Z,97655.91
2023-01-22T00:20:53.960Z,97653.03
2023-01-22T00:23:20.839Z,97655.47
2023-01-22T00:25:47.539Z,97656.72
2023-01-22T00:28:14.286Z,97662.25
2023-01-22T00:30:40.735Z,97666.31
2023-01-22T00:33:07.185Z,97665.00
2023-01-22T00:35:35.388Z,97670.13
2023-01-22T00:38:01.864Z,97669.94
2023-01-22T00:40:28.386Z,97673.56
2023-01-22T00:42:54.829Z,97676.72
2023-01-22T00:45:21.358Z,97669.63
2023-01-22T00:47:47.852Z,97674.00
2023-01-22T00:50:14.347Z,97661.03
2023-01-22T00:52:40.812Z,97665.06
2023-01-22T00:55:07.503Z,97669.19
2023-01-22T00:57:34.511Z,97668.56
2023-01-22T01:00:01.039Z,97667.56
2023-01-22T01:02:29.881Z,97672.69
2023-01-22T01:04:56.902Z,97676.94
2023-01-22T01:07:23.681Z,97678.13
2023-01-22T01:09:50.641Z,97674.91
2023-01-22T01:12:17.159Z,97681.59
2023-01-22T01:14:43.691Z,97681.59
2023-01-22T01:17:10.138Z,97687.34
2023-01-22T01:19:36.560Z,97681.00
2023-01-22T01:22:03.298Z,97683.78
2023-01-22T01:24:29.767Z,97678.38
2023-01-22T01:26:56.203Z,97681.09
2023-01-22T01:29:22.667Z,97679.28
2023-01-22T01:31:53.207Z,97676.75
2023-01-22T01:34:19.822Z,97679.75
2023-01-22T01:36:49.425Z,97686.56
2023-01-22T01:39:16.506Z,97694.22
2023-01-22T01:41:43.081Z,97679.53
2023-01-22T01:44:17.135Z,97684.03
2023-01-22T01:46:54.222Z,97681.47
2023-01-22T01:49:25.768Z,97686.34
2023-01-22T01:51:54.459Z,97689.91
2023-01-22T01:54:20.917Z,97689.25
2023-01-22T01:56:51.976Z,97695.03
2023-01-22T01:59:20.171Z,97701.78
2023-01-22T02:01:49.637Z,97695.47
2023-01-22T02:04:16.956Z,97690.94
2023-01-22T02:06:43.421Z,97699.84
2023-01-22T02:09:09.871Z,97701.25
2023-01-22T02:11:36.547Z,97701.91
2023-01-22T02:14:05.530Z,97703.22
2023-01-22T02:16:32.033Z,97710.34
2023-01-22T02:18:58.528Z,97717.41
2023-01-22T02:21:36.618Z,97721.19
2023-01-22T02:24:08.046Z,97714.16
2023-01-22T02:26:34.946Z,97716.34
2023-01-22T02:29:01.482Z,97722.22
2023-01-22T02:31:30.323Z,97723.41
2023-01-22T02:33:57.976Z,97717.63
2023-01-22T02:36:28.124Z,97712.59
2023-01-22T02:38:54.861Z,97718.09
2023-01-22T02:41:21.602Z,97720.53
2023-01-22T02:43:48.092Z,97719.97
2023-01-22T02:46:15.001Z,97708.22
2023-01-22T02:48:41.486Z,97721.22
2023-01-22T02:51:08.322Z,97713.69
2023-01-22T02:53:34.916Z,97717.50
2023-01-22T02:56:05.576Z,97714.28
2023-01-22T02:58:32.062Z,97722.34
2023-01-22T03:01:06.900Z,97711.38
2023-01-22T03:03:33.410Z,97718.28
2023-01-22T03:05:59.911Z,97726.78
2023-01-22T03:08:26.655Z,97723.44
2023-01-22T03:10:57.562Z,97718.66
2023-01-22T03:13:43.186Z,97719.81
2023-01-22T03:16:28.574Z,97721.50
2023-01-22T03:19:13.956Z,97707.84
2023-01-22T03:21:43.930Z,97717.22
2023-01-22T03:24:10.399Z,97706.13
2023-01-22T03:26:37.628Z,97709.91
2023-01-22T03:29:04.138Z,97708.97
2023-01-22T03:31:30.865Z,97707.47
2023-01-22T03:33:57.604Z,97710.31
2023-01-22T03:36:24.354Z,97698.75
2023-01-22T03:38:54.338Z,97697.81
2023-01-22T03:41:24.246Z,97696.81
2023-01-22T03:43:50.902Z,97698.06
2023-01-22T03:46:20.719Z,97697.41
2023-01-22T03:48:52.184Z,97700.06
2023-01-22T03:51:19.738Z,97697.16
2023-01-22T03:53:46.875Z,97699.31
2023-01-22T03:56:15.163Z,97712.06
2023-01-22T03:58:42.275Z,97717.22
2023-01-22T04:01:14.072Z,97710.34
2023-01-22T04:03:41.167Z,97725.75
2023-01-22T04:06:09.082Z,97721.78
2023-01-22T04:08:37.443Z,97719.47
2023-01-22T04:11:04.392Z,97719.22
2023-01-22T04:13:32.271Z,97727.22
2023-01-22T04:15:59.692Z,97718.41
2023-01-22T04:18:44.529Z,97723.94
2023-01-22T04:21:27.565Z,97717.50
2023-01-22T04:23:56.714Z,97717.81
2023-01-22T04:26:23.997Z,97718.63
2023-01-22T04:28:50.625Z,97733.63
2023-01-22T04:31:20.234Z,97721.09
2023-01-22T04:34:19.639Z,97728.91
2023-01-22T04:37:02.279Z,97728.81
2023-01-22T04:39:31.837Z,97730.09
2023-01-22T04:41:59.025Z,97734.25
2023-01-22T04:44:25.844Z,97729.44
2023-01-22T04:46:53.022Z,97743.75
2023-01-22T04:49:19.908Z,97735.16
2023-01-22T04:51:46.715Z,97748.50
2023-01-22T04:54:13.187Z,97734.34
2023-01-22T04:56:39.616Z,97736.06
2023-01-22T04:59:06.169Z,97732.56
2023-01-22T05:01:32.730Z,97747.91
2023-01-22T05:04:00.889Z,97736.28
2023-01-22T05:06:27.807Z,97746.19
2023-01-22T05:08:54.357Z,97744.31
2023-01-22T05:11:20.903Z,97745.63
2023-01-22T05:13:52.839Z,97742.19
2023-01-22T05:16:20.243Z,97737.88
2023-01-22T05:18:47.243Z,97738.78
2023-01-22T05:21:14.232Z,97726.97
2023-01-22T05:23:40.696Z,97736.16
2023-01-22T05:26:07.342Z,97736.09
2023-01-22T05:28:43.227Z,97740.72
2023-01-22T05:31:37.847Z,97744.59
2023-01-22T05:34:07.710Z,97741.25
2023-01-22T05:36:34.321Z,97744.50
2023-01-22T05:39:09.448Z,97741.25
2023-01-22T05:41:36.127Z,97734.41
2023-01-22T05:44:03.400Z,97737.31
2023-01-22T05:46:29.969Z,97739.41
2023-01-22T05:49:15.301Z,97741.56
2023-01-22T05:51:41.886Z,97735.94
2023-01-22T05:54:08.475Z,97744.09
2023-01-22T05:56:37.799Z,97734.75
2023-01-22T05:59:04.909Z,97734.56
2023-01-22T06:01:31.549Z,97739.53
2023-01-22T06:03:59.340Z,97740.69
2023-01-22T06:06:26.308Z,97742.00
2023-01-22T06:08:55.238Z,97747.50
2023-01-22T06:11:23.215Z,97746.91
2023-01-22T06:13:49.870Z,97741.09
2023-01-22T06:16:18.603Z,97752.72
2023-01-22T06:19:08.614Z,97753.41
2023-01-22T06:21:40.442Z,97758.63
2023-01-22T06:24:07.859Z,97759.22
2023-01-22T06:26:34.283Z,97756.94
2023-01-22T06:29:01.355Z,97753.50
2023-01-22T06:31:28.795Z,97758.63
2023-01-22T06:33:55.630Z,97769.28
2023-01-22T06:36:22.247Z,97771.78
2023-01-22T06:38:48.815Z,97775.63
2023-01-22T06:41:19.628Z,97777.09
2023-01-22T06:43:49.144Z,97773.50
2023-01-22T06:46:15.791Z,97778.88
2023-01-22T06:49:01.581Z,97784.00
2023-01-22T06:51:29.518Z,97784.81
2023-01-22T06:53:55.971Z,97788.84
2023-01-22T06:56:22.507Z,97794.56
2023-01-22T06:58:50.181Z,97802.69
2023-01-22T07:01:16.757Z,97803.88
2023-01-22T07:03:43.278Z,97805.16
2023-01-22T07:06:09.848Z,97797.63
2023-01-22T07:08:36.995Z,97800.91
2023-01-22T07:11:05.660Z,97810.50
2023-01-22T07:13:33.448Z,97805.91
2023-01-22T07:16:03.560Z,97802.53
2023-01-22T07:18:30.535Z,97805.28
2023-01-22T07:21:03.913Z,97811.81
2023-01-22T07:23:30.897Z,97813.94
2023-01-22T07:25:57.591Z,97812.06
2023-01-22T07:28:24.080Z,97820.22
2023-01-22T07:30:50.783Z,97818.19
2023-01-22T07:33:17.295Z,97815.34
2023-01-22T07:35:43.753Z,97822.47
2023-01-22T07:38:10.284Z,97814.19
2023-01-22T07:40:36.793Z,97821.41
2023-01-22T07:43:06.882Z,97825.38
2023-01-22T07:45:33.475Z,97824.84
2023-01-22T07:48:00.399Z,97826.44
2023-01-22T07:50:28.451Z,97829.75
2023-01-22T07:52:55.417Z,97824.81
2023-01-22T07:55:22.276Z,97821.78
2023-01-22T07:57:48.902Z,97835.78
2023-01-22T08:00:18.868Z,97833.88
2023-01-22T08:02:45.543Z,97840.00
2023-01-22T08:05:13.691Z,97842.19
2023-01-22T08:07:40.149Z,97846.84
2023-01-22T08:10:06.910Z,97849.88
2023-01-22T08:12:33.346Z,97849.50
2023-01-22T08:14:59.885Z,97863.91
2023-01-22T08:17:26.311Z,97862.19
2023-01-22T08:19:52.730Z,97866.56
2023-01-22T08:22:19.232Z,97868.19
2023-01-22T08:24:45.699Z,97855.16
2023-01-22T08:27:12.167Z,97863.91
2023-01-22T08:29:38.626Z,97868.84
2023-01-22T08:32:06.238Z,97867.13
2023-01-22T08:34:32.868Z,97871.13
2023-01-22T08:36:59.286Z,97876.25
2023-01-22T08:39:25.716Z,97883.47
2023-01-22T08:41:57.287Z,97891.22
2023-01-22T08:44:24.428Z,97880.63
2023-01-22T08:46:51.121Z,97881.94
2023-01-22T08:49:18.266Z,97896.91
2023-01-22T08:51:44.995Z,97886.81
2023-01-22T08:54:11.443Z,97899.38
2023-01-22T08:56:37.877Z,97897.50
2023-01-22T08:59:06.531Z,97908.88
2023-01-22T09:01:33.511Z,97919.69
2023-01-22T09:04:00.108Z,97913.91
2023-01-22T09:06:27.211Z,97919.84
2023-01-22T09:08:54.159Z,97921.94
2023-01-22T09:11:20.663Z,97928.59
2023-01-22T09:13:47.115Z,97931.16
2023-01-22T09:16:13.614Z,97939.31
2023-01-22T09:18:40.106Z,97935.06
2023-01-22T09:21:08.236Z,97941.31
2023-01-22T09:23:34.718Z,97945.38
2023-01-22T09:26:01.262Z,97950.38
2023-01-22T09:28:27.773Z,97955.53
2023-01-22T09:30:54.299Z,97951.72
2023-01-22T09:33:20.730Z,97959.13
2023-01-22T09:35:47.167Z,97959.91
2023-01-22T09:38:14.225Z,97955.88
2023-01-22T09:40:48.346Z,97955.31
2023-01-22T09:43:27.164Z,97959.13
2023-01-22T09:45:55.908Z,97960.81
2023-01-22T09:48:22.858Z,97962.72
2023-01-22T09:50:50.693Z,97964.31
2023-01-22T09:53:19.823Z,97962.78
2023-01-22T09:55:48.039Z,97967.16
2023-01-22T09:58:16.207Z,97965.50
2023-01-22T10:00:51.645Z,97964.78
2023-01-22T10:03:22.772Z,97962.91
2023-01-22T10:05:52.923Z,97965.38
2023-01-22T10:08:28.882Z,97970.69
2023-01-22T10:10:55.367Z,97968.16
2023-01-22T10:13:22.979Z,97967.09
2023-01-22T10:15:50.576Z,97964.72
2023-01-22T10:18:20.126Z,97965.03
2023-01-22T10:20:47.038Z,97976.56
2023-01-22T10:23:18.449Z,97975.66
2023-01-22T10:25:44.908Z,97969.19
2023-01-22T10:28:12.251Z,97972.56
2023-01-22T10:30:46.056Z,97975.22
2023-01-22T10:33:17.250Z,97978.16
2023-01-22T10:35:46.496Z,97983.44
2023-01-22T10:38:21.934Z,97981.75
2023-01-22T10:40:52.423Z,97979.47
2023-01-22T10:43:18.867Z,97983.47
2023-01-22T10:45:52.031Z,97981.59
2023-01-22T10:48:18.991Z,97983.09
2023-01-22T10:50:46.067Z,97988.00
2023-01-22T10:53:19.603Z,97983.25
2023-01-22T10:55:51.411Z,97982.66
2023-01-22T10:58:18.583Z,97979.72
2023-01-22T11:00:54.937Z,97986.41
2023-01-22T11:03:23.196Z,97987.69
2023-01-22T11:05:55.116Z,97987.59
2023-01-22T11:08:21.986Z,97989.56
2023-01-22T11:10:56.807Z,97990.31
2023-01-22T11:13:44.317Z,97987.31
2023-01-22T11:16:18.268Z,97992.81
2023-01-22T11:19:01.165Z,97991.28
2023-01-22T11:21:39.087Z,97984.25
2023-01-22T11:24:21.183Z,97993.69
2023-01-22T11:26:50.507Z,97983.00
2023-01-22T11:29:35.762Z,97986.16
2023-01-22T11:32:02.180Z,97999.34
2023-01-22T11:34:51.879Z,97994.91
2023-01-22T11:37:29.821Z,97996.50
2023-01-22T11:40:14.899Z,97987.47
2023-01-22T11:42:56.623Z,97989.53
2023-01-22T11:45:29.410Z,97984.91
2023-01-22T11:47:55.833Z,97988.81
2023-01-22T11:50:33.896Z,97983.00
2023-01-22T11:53:15.722Z,97974.97
2023-01-22T11:55:46.901Z,97984.72
2023-01-22T11:58:22.586Z,97983.56
2023-01-22T12:00:58.383Z,97978.94
2023-01-22T12:03:33.850Z,97972.09
2023-01-22T12:06:12.928Z,97976.66
2023-01-22T12:08:57.996Z,97989.06
2023-01-22T12:11:32.133Z,97982.56
2023-01-22T12:14:17.172Z,97980.69
2023-01-22T12:17:02.258Z,97976.91
2023-01-22T12:19:37.587Z,97986.75
2023-01-22T12:22:04.172Z,97979.91
2023-01-22T12:24:36.801Z,97986.53
2023-01-22T12:27:15.728Z,97989.06
2023-01-22T12:29:48.443Z,97981.78
2023-01-22T12:32:19.197Z,97977.22
2023-01-22T12:34:51.523Z,97993.53
2023-01-22T12:37:19.970Z,97984.94
2023-01-22T12:40:07.152Z,97984.69
2023-01-22T12:42:52.117Z,97986.06
2023-01-22T12:45:38.801Z,97991.72
2023-01-22T12:48:14.731Z,97990.72
2023-01-22T12:50:54.904Z,97990.44
2023-01-22T12:53:23.045Z,97992.81
2023-01-22T12:56:03.808Z,97993.06
2023-01-22T12:58:31.756Z,97994.75
2023-01-22T13:01:03.283Z,97988.69
2023-01-22T13:03:31.928Z,97991.25
2023-01-22T13:05:59.762Z,97992.25
2023-01-22T13:08:33.992Z,97988.94
2023-01-22T13:11:01.854Z,97997.22
2023-01-22T13:13:39.840Z,97998.75
2023-01-22T13:16:16.954Z,98004.06
2023-01-22T13:18:54.070Z,98007.09
2023-01-22T13:21:25.931Z,98015.47
2023-01-22T13:23:56.972Z,98015.00
2023-01-22T13:26:27.091Z,98015.56
2023-01-22T13:29:04.728Z,98026.97
2023-01-22T13:31:32.867Z,98020.59
2023-01-22T13:34:05.037Z,98016.13
2023-01-22T13:36:31.500Z,98022.84
2023-01-22T13:38:59.258Z,98027.00
2023-01-22T13:41:27.387Z,98020.44
2023-01-22T13:43:53.970Z,98021.41
2023-01-22T13:46:20.587Z,98017.78
2023-01-22T13:48:47.357Z,98020.09
2023-01-22T13:51:18.414Z,98036.47
2023-01-22T13:53:53.793Z,98026.44
2023-01-22T13:56:22.565Z,98026.59
2023-01-22T13:58:49.689Z,98025.69
2023-01-22T14:01:34.922Z,98028.63
2023-01-22T14:04:04.609Z,98027.63
2023-01-22T14:06:41.909Z,98027.25
2023-01-22T14:09:09.458Z,98039.00
2023-01-22T14:11:41.026Z,98045.13
2023-01-22T14:14:17.762Z,98049.25
2023-01-22T14:16:44.484Z,98050.84
2023-01-22T14:19:11.061Z,98056.63
2023-01-22T14:21:37.663Z,98050.84
2023-01-22T14:24:04.367Z,98052.47
2023-01-22T14:26:31.115Z,98062.47
2023-01-22T14:28:57.563Z,98060.03
2023-01-22T14:31:24.069Z,98069.50
2023-01-22T14:33:50.636Z,98074.72
2023-01-22T14:36:18.478Z,98075.56
2023-01-22T14:38:44.914Z,98077.47
2023-01-22T14:41:11.326Z,98085.56
2023-01-22T14:43:37.763Z,98080.34
2023-01-22T14:46:06.824Z,98084.06
2023-01-22T14:48:33.384Z,98088.53
2023-01-22T14:50:59.831Z,98084.53
2023-01-22T14:53:26.371Z,98087.19
2023-01-22T14:55:52.839Z,98091.56
2023-01-22T14:58:19.272Z,98091.56
2023-01-22T15:00:45.766Z,98097.28
2023-01-22T15:03:12.268Z,98103.63
2023-01-22T15:05:38.710Z,98096.59
2023-01-22T15:08:05.241Z,98107.06
2023-01-22T15:10:31.915Z,98112.50
2023-01-22T15:12:58.384Z,98097.81
2023-01-22T15:15:26.926Z,98104.97
2023-01-22T15:17:53.948Z,98102.44
2023-01-22T15:20:21.387Z,98113.75
2023-01-22T15:22:49.572Z,98117.47
2023-01-22T15:25:16.251Z,98115.91
2023-01-22T15:27:43.839Z,98111.75
2023-01-22T15:30:11.016Z,98103.38
2023-01-22T15:32:37.569Z,98104.91
2023-01-22T15:35:04.218Z,98111.63
2023-01-22T15:37:30.618Z,98124.22
2023-01-22T15:39:57.072Z,98123.53
2023-01-22T15:42:23.542Z,98120.56
2023-01-22T15:44:49.961Z,98126.94
2023-01-22T15:47:16.376Z,98127.31
2023-01-22T15:49:43.091Z,98121.06
2023-01-22T15:52:09.534Z,98138.47
2023-01-22T15:54:35.962Z,98144.81
2023-01-22T15:57:02.422Z,98147.25
2023-01-22T15:59:28.976Z,98149.56
2023-01-22T16:01:55.642Z,98151.44
2023-01-22T16:04:22.099Z,98149.47
2023-01-22T16:06:48.800Z,98156.53
2023-01-22T16:09:15.248Z,98157.44
2023-01-22T16:11:41.687Z,98162.72
2023-01-22T16:14:08.168Z,98168.22
2023-01-22T16:16:37.964Z,98173.63
2023-01-22T16:19:05.976Z,98180.47
2023-01-22T16:21:32.430Z,98191.28
2023-01-22T16:23:59.753Z,98194.09
2023-01-22T16:26:27.448Z,98195.16
2023-01-22T16:28:55.259Z,98194.25
2023-01-22T16:31:23.362Z,98195.09
2023-01-22T16:33:54.640Z,98206.72
2023-01-22T16:36:22.035Z,98209.97
2023-01-22T16:38:48.953Z,98204.41
2023-01-22T16:41:24.957Z,98206.81
2023-01-22T16:43:53.117Z,98211.91
2023-01-22T16:46:20.593Z,98218.28
2023-01-22T16:48:47.440Z,98223.09
2023-01-22T16:51:16.347Z,98218.19
2023-01-22T16:53:42.847Z,98219.59
2023-01-22T16:56:09.506Z,98220.16
2023-01-22T16:58:36.939Z,98225.16
2023-01-22T17:01:04.103Z,98223.31
2023-01-22T17:03:30.747Z,98224.28
2023-01-22T17:05:57.296Z,98229.59
2023-01-22T17:08:24.235Z,98234.47
2023-01-22T17:10:50.756Z,98240.13
2023-01-22T17:13:17.306Z,98236.09
2023-01-22T17:15:47.176Z,98239.41
2023-01-22T17:18:13.881Z,98243.84
2023-01-22T17:20:41.212Z,98257.56
2023-01-22T17:23:09.659Z,98267.06
2023-01-22T17:25:39.290Z,98272.97
2023-01-22T17:28:05.817Z,98268.72
2023-01-22T17:30:32.300Z,98277.94
2023-01-22T17:32:58.737Z,98276.06
2023-01-22T17:35:25.306Z,98293.91
2023-01-22T17:37:51.775Z,98292.38
2023-01-22T17:40:18.363Z,98287.56
2023-01-22T17:42:44.787Z,98287.03
2023-01-22T17:45:11.464Z,98289.53
2023-01-22T17:47:37.980Z,98304.56
2023-01-22T17:50:04.582Z,98302.06
2023-01-22T17:52:31.070Z,98307.78
2023-01-22T17:54:57.547Z,98307.72
2023-01-22T17:57:23.972Z,98312.59
2023-01-22T17:59:51.335Z,98312.94
2023-01-22T18:02:17.821Z,98315.78
2023-01-22T18:04:44.327Z,98320.28
2023-01-22T18:07:10.791Z,98307.63
2023-01-22T18:09:37.310Z,98307.78
2023-01-22T18:12:03.908Z,98298.53
2023-01-22T18:14:33.919Z,98301.44
2023-01-22T18:17:01.227Z,98309.16
2023-01-22T18:19:28.088Z,98314.47
2023-01-22T18:21:54.558Z,98309.34
2023-01-22T18:24:23.089Z,98321.34
2023-01-22T18:26:49.975Z,98326.53
2023-01-22T18:29:16.447Z,98330.25
2023-01-22T18:31:44.330Z,98329.41
2023-01-22T18:34:13.410Z,98337.09
2023-01-22T18:36:40.426Z,98357.16
2023-01-22T18:39:08.745Z,98343.28
2023-01-22T18:41:36.353Z,98338.97
2023-01-22T18:44:02.954Z,98353.28
2023-01-22T18:46:31.335Z,98364.91
2023-01-22T18:48:59.165Z,98363.53
2023-01-22T18:51:26.608Z,98370.97
2023-01-22T18:53:53.327Z,98367.47
2023-01-22T18:56:19.948Z,98360.69
2023-01-22T18:58:48.025Z,98354.91
2023-01-22T19:01:15.858Z,98338.44
2023-01-22T19:03:43.402Z,98330.13
2023-01-22T19:06:14.494Z,98333.13
2023-01-22T19:08:42.111Z,98332.59
2023-01-22T19:11:08.848Z,98332.78
2023-01-22T19:13:35.599Z,98345.00
2023-01-22T19:16:03.241Z,98344.50
2023-01-22T19:18:29.717Z,98336.78
2023-01-22T19:21:01.117Z,98337.88
2023-01-22T19:23:27.590Z,98345.84
2023-01-22T19:25:56.987Z,98366.06
2023-01-22T19:28:23.514Z,98362.97
2023-01-22T19:30:50.095Z,98357.41
2023-01-22T19:33:16.546Z,98352.97
2023-01-22T19:35:49.237Z,98369.75
2023-01-22T19:38:15.979Z,98376.94
2023-01-22T19:40:45.470Z,98376.81
2023-01-22T19:43:12.162Z,98374.41
2023-01-22T19:45:38.604Z,98370.69
2023-01-22T19:48:06.813Z,98380.38
2023-01-22T19:50:33.839Z,98383.69
2023-01-22T19:53:00.363Z,98370.63
2023-01-22T19:55:26.947Z,98363.72
2023-01-22T19:57:57.010Z,98363.59
2023-01-22T20:00:23.532Z,98354.50
2023-01-22T20:02:50.048Z,98357.63
2023-01-22T20:05:20.657Z,98355.91
2023-01-22T20:07:47.825Z,98362.47
2023-01-22T20:10:15.429Z,98367.38
2023-01-22T20:12:43.248Z,98363.41
2023-01-22T20:15:10.035Z,98369.75
2023-01-22T20:17:37.126Z,98365.25
2023-01-22T20:20:04.998Z,98368.69
2023-01-22T20:22:31.647Z,98365.63
2023-01-22T20:24:58.068Z,98369.56
2023-01-22T20:27:24.927Z,98373.81
2023-01-22T20:29:51.451Z,98377.53
2023-01-22T20:32:18.492Z,98368.44
2023-01-22T20:34:48.805Z,98369.25
2023-01-22T20:37:15.383Z,98364.53
2023-01-22T20:39:41.850Z,98374.97
2023-01-22T20:42:08.305Z,98376.34
2023-01-22T20:44:35.551Z,98374.38
2023-01-22T20:47:02.026Z,98379.56
2023-01-22T20:49:28.925Z,98382.00
2023-01-22T20:51:55.455Z,98389.03
2023-01-22T20:54:21.993Z,98390.50
2023-01-22T20:56:48.471Z,98396.00
2023-01-22T20:59:17.290Z,98402.88
2023-01-22T21:01:43.997Z,98403.97
2023-01-22T21:04:11.169Z,98404.13
2023-01-22T21:06:39.317Z,98411.84
2023-01-22T21:09:06.609Z,98412.25
2023-01-22T21:11:33.902Z,98413.16
2023-01-22T21:14:01.132Z,98413.63
2023-01-22T21:16:31.168Z,98411.56
2023-01-22T21:18:59.131Z,98416.59
2023-01-22T21:21:25.893Z,98428.22
2023-01-22T21:23:53.147Z,98423.78
2023-01-22T21:26:22.835Z,98423.31
2023-01-22T21:28:50.972Z,98429.56
2023-01-22T21:31:19.119Z,98428.63
2023-01-22T21:33:46.160Z,98437.66
2023-01-22T21:36:13.188Z,98444.50
2023-01-22T21:38:39.864Z,98440.66
2023-01-22T21:41:12.464Z,98441.13
2023-01-22T21:43:58.640Z,98444.69
2023-01-22T21:46:25.642Z,98436.53
2023-01-22T21:48:58.255Z,98437.72
2023-01-22T21:51:28.643Z,98443.31
2023-01-22T21:53:56.237Z,98445.19
2023-01-22T21:56:23.099Z,98450.94
2023-01-22T21:58:50.010Z,98444.03
2023-01-22T22:01:18.228Z,98453.78
2023-01-22T22:03:44.800Z,98448.28
2023-01-22T22:06:11.558Z,98455.00
2023-01-22T22:08:38.509Z,98457.78
2023-01-22T22:11:05.172Z,98471.56
2023-01-22T22:13:32.744Z,98472.03
2023-01-22T22:16:00.232Z,98470.94
2023-01-22T22:18:26.679Z,98475.19
2023-01-22T22:20:53.201Z,98479.25
2023-01-22T22:23:19.615Z,98472.69
2023-01-22T22:25:47.564Z,98468.78
2023-01-22T22:28:14.428Z,98474.84
2023-01-22T22:30:40.889Z,98471.28
2023-01-22T22:33:07.367Z,98477.22
2023-01-22T22:35:33.786Z,98466.91
2023-01-22T22:38:00.239Z,98462.00
2023-01-22T22:40:26.689Z,98457.22
2023-01-22T22:42:53.617Z,98473.16
2023-01-22T22:45:20.104Z,98468.03
2023-01-22T22:47:46.542Z,98470.97
2023-01-22T22:50:13.035Z,98463.63
2023-01-22T22:52:39.474Z,98467.41
2023-01-22T22:55:06.267Z,98474.25
2023-01-22T22:57:32.703Z,98467.09
2023-01-22T22:59:59.714Z,98467.22
2023-01-22T23:02:26.203Z,98470.00
2023-01-22T23:04:52.610Z,98464.72
2023-01-22T23:07:19.074Z,98469.56
2023-01-22T23:09:45.536Z,98463.94
2023-01-22T23:12:11.978Z,98469.88
2023-01-22T23:14:38.419Z,98469.34
2023-01-22T23:17:04.885Z,98470.19
2023-01-22T23:19:31.618Z,98462.09
2023-01-22T23:21:59.387Z,98479.56
2023-01-22T23:24:25.974Z,98478.63
2023-01-22T23:26:52.585Z,98471.91
2023-01-22T23:29:22.456Z,98475.19
2023-01-22T23:31:49.048Z,98469.88
2023-01-22T23:34:16.961Z,98469.41
2023-01-22T23:36:45.131Z,98479.56
2023-01-22T23:39:15.925Z,98471.69
2023-01-22T23:41:42.908Z,98470.06
2023-01-22T23:44:09.439Z,98467.38
2023-01-22T23:46:36.381Z,98477.53
2023-01-22T23:49:04.446Z,98471.44
2023-01-22T23:51:31.527Z,98467.63
2023-01-22T23:53:58.124Z,98473.41
2023-01-22T23:56:26.094Z,98472.31
2023-01-22T23:58:53.758Z,98481.53
